Time;durP1;ratioP1;P1;durP2;ratioP2;P2;SDS_P1;SDS_P2;PMS_P1;PMS_P2;Temp;Humidity;BMP_temperature;BMP_pressure;BME280_temperature;BME280_humidity;BME280_pressure;Samples;Min_cycle;Max_cycle;Signal;HPM_P1;HPM_P2
2022/06/03 00:00:56;;;;;;;0.00;0.00;;;;;;;;;;5035835;28;98330;-73
2022/06/03 00:03:44;;;;;;;0.00;0.00;;;;;;;;;;5030998;28;98729;-73
2022/06/03 00:06:25;;;;;;;0.00;0.00;;;;;;;;;;5035426;28;100019;-73
2022/06/03 00:08:54;;;;;;;0.00;0.00;;;;;;;;;;5035267;28;98418;-74
2022/06/03 00:11:56;;;;;;;0.00;0.00;;;;;;;;;;5038569;28;98431;-72
2022/06/03 00:15:00;;;;;;;0.10;0.10;;;;;;;;;;4934479;28;98660;-73
2022/06/03 00:17:34;;;;;;;0.00;0.00;;;;;;;;;;4954346;28;100538;-75
2022/06/03 00:20:12;;;;;;;0.00;0.00;;;;;;;;;;4953758;28;99850;-72
2022/06/03 00:22:53;;;;;;;0.00;0.00;;;;;;;;;;5002609;28;98622;-72
2022/06/03 00:25:44;;;;;;;0.00;0.00;;;;;;;;;;5034948;28;99919;-73
2022/06/03 00:28:10;;;;;;;0.00;0.00;;;;;;;;;;5017284;28;99504;-74
2022/06/03 00:30:51;;;;;;;0.00;0.00;;;;;;;;;;5035234;28;98495;-74
2022/06/03 00:33:17;;;;;;;0.00;0.00;;;;;;;;;;5035287;28;99335;-74
2022/06/03 00:35:53;;;;;;;0.05;0.05;;;;;;;;;;5038331;28;99522;-74
2022/06/03 00:38:30;;;;;;;0.00;0.00;;;;;;;;;;5036344;27;99238;-74
2022/06/03 00:41:25;;;;;;;0.00;0.00;;;;;;;;;;5037527;28;100612;-74
2022/06/03 00:44:00;;;;;;;0.00;0.00;;;;;;;;;;5035548;28;97629;-74
2022/06/03 00:46:39;;;;;;;0.00;0.00;;;;;;;;;;5035165;28;98861;-75
2022/06/03 00:49:18;;;;;;;0.00;0.00;;;;;;;;;;5034951;28;99265;-74
2022/06/03 00:51:47;;;;;;;0.00;0.00;;;;;;;;;;5033926;28;99211;-75
2022/06/03 00:54:17;;;;;;;0.00;0.00;;;;;;;;;;5035023;28;100539;-74
2022/06/03 00:56:52;;;;;;;0.00;0.00;;;;;;;;;;5034738;28;99913;-74
2022/06/03 00:59:47;;;;;;;0.00;0.00;;;;;;;;;;5038213;28;98318;-74
2022/06/03 01:02:14;;;;;;;0.00;0.00;;;;;;;;;;5033759;28;100815;-73
2022/06/03 01:04:44;;;;;;;0.00;0.00;;;;;;;;;;5034729;28;98355;-74
2022/06/03 01:07:35;;;;;;;0.00;0.00;;;;;;;;;;5017328;28;99589;-74
2022/06/03 01:10:04;;;;;;;0.00;0.00;;;;;;;;;;5034610;28;98874;-74
2022/06/03 01:12:54;;;;;;;0.00;0.00;;;;;;;;;;5034302;28;98406;-74
2022/06/03 01:15:24;;;;;;;0.00;0.00;;;;;;;;;;4987893;28;99787;-74
2022/06/03 01:17:59;;;;;;;0.00;0.00;;;;;;;;;;5033427;28;101308;-74
2022/06/03 01:20:37;;;;;;;0.00;0.00;;;;;;;;;;5037874;28;98688;-75
2022/06/03 01:23:19;;;;;;;0.00;0.00;;;;;;;;;;5032970;27;99837;-74
2022/06/03 01:26:05;;;;;;;0.00;0.00;;;;;;;;;;5034323;28;98451;-73
2022/06/03 01:28:51;;;;;;;0.00;0.00;;;;;;;;;;5034493;28;99089;-74
2022/06/03 01:31:37;;;;;;;0.00;0.00;;;;;;;;;;5033621;27;98940;-74
2022/06/03 01:34:19;;;;;;;0.00;0.00;;;;;;;;;;5034273;28;98399;-74
2022/06/03 01:36:45;;;;;;;0.00;0.00;;;;;;;;;;5034798;28;99424;-74
2022/06/03 01:39:30;;;;;;;0.00;0.00;;;;;;;;;;5033900;27;99509;-74
2022/06/03 01:42:16;;;;;;;0.00;0.00;;;;;;;;;;5034238;28;98484;-74
2022/06/03 01:44:52;;;;;;;0.00;0.00;;;;;;;;;;5022092;28;100466;-74
2022/06/03 01:47:24;;;;;;;0.00;0.00;;;;;;;;;;5033989;28;98242;-74
2022/06/03 01:50:03;;;;;;;0.00;0.00;;;;;;;;;;5033246;27;99625;-74
2022/06/03 01:52:43;;;;;;;0.00;0.00;;;;;;;;;;5033751;28;100276;-73
2022/06/03 01:55:31;;;;;;;0.00;0.00;;;;;;;;;;5033886;28;98404;-74
2022/06/03 01:58:03;;;;;;;0.00;0.00;;;;;;;;;;5034065;28;99272;-74
2022/06/03 02:00:38;;;;;;;0.17;0.17;;;;;;;;;;5033100;28;99620;-74
2022/06/03 02:03:08;;;;;;;0.00;0.00;;;;;;;;;;5034144;27;97652;-74
2022/06/03 02:05:43;;;;;;;0.00;0.00;;;;;;;;;;5033051;28;98831;-74
2022/06/03 02:08:18;;;;;;;0.00;0.00;;;;;;;;;;5035527;28;100935;-74
2022/06/03 02:10:54;;;;;;;0.00;0.00;;;;;;;;;;5032859;28;99656;-74
2022/06/03 02:13:34;;;;;;;0.00;0.00;;;;;;;;;;5033329;28;99971;-74
2022/06/03 02:16:06;;;;;;;0.00;0.00;;;;;;;;;;5033657;28;98361;-73
2022/06/03 02:18:38;;;;;;;0.00;0.00;;;;;;;;;;5033680;28;99335;-74
2022/06/03 02:21:20;;;;;;;0.00;0.00;;;;;;;;;;5033284;28;99958;-74
2022/06/03 02:24:05;;;;;;;0.00;0.00;;;;;;;;;;5033634;28;98275;-75
2022/06/03 02:26:50;;;;;;;0.00;0.00;;;;;;;;;;5033560;28;99343;-74
2022/06/03 02:32:47;;;;;;;0.00;0.00;;;;;;;;;;5036773;28;99198;-74
2022/06/03 02:35:29;;;;;;;0.00;0.00;;;;;;;;;;5033001;28;99659;-74
2022/06/03 02:38:20;;;;;;;0.03;0.03;;;;;;;;;;5032680;27;99173;-74
2022/06/03 02:41:02;;;;;;;0.00;0.00;;;;;;;;;;5033399;28;100371;-73
2022/06/03 02:43:47;;;;;;;0.00;0.00;;;;;;;;;;5031598;28;101874;-73
2022/06/03 02:46:19;;;;;;;0.00;0.00;;;;;;;;;;5033202;27;98381;-74
2022/06/03 02:48:46;;;;;;;0.00;0.00;;;;;;;;;;5036865;28;98773;-74
2022/06/03 02:51:31;;;;;;;0.00;0.00;;;;;;;;;;5037401;28;98277;-74
2022/06/03 02:54:08;;;;;;;0.00;0.00;;;;;;;;;;5033112;28;98506;-74
2022/06/03 02:56:47;;;;;;;0.13;0.13;;;;;;;;;;5036656;27;99588;-74
2022/06/03 02:59:13;;;;;;;0.00;0.00;;;;;;;;;;5033281;28;98320;-74
2022/06/03 03:01:45;;;;;;;0.00;0.00;;;;;;;;;;5035382;28;98791;-74
2022/06/03 03:04:12;;;;;;;0.00;0.00;;;;;;;;;;5035844;28;100699;-74
2022/06/03 03:06:42;;;;;;;0.00;0.00;;;;;;;;;;5036609;28;98312;-73
2022/06/03 03:09:11;;;;;;;0.10;0.10;;;;;;;;;;5036091;28;99047;-75
2022/06/03 03:11:41;;;;;;;0.75;0.25;;;;;;;;;;5036308;28;99114;-74
2022/06/03 03:14:26;;;;;;;0.00;0.00;;;;;;;;;;5036444;28;98328;-75
2022/06/03 03:16:52;;;;;;;0.00;0.00;;;;;;;;;;5039474;28;99572;-74
2022/06/03 03:19:32;;;;;;;0.00;0.00;;;;;;;;;;5036135;28;98907;-74
2022/06/03 03:22:17;;;;;;;0.00;0.00;;;;;;;;;;5036111;28;99300;-74
2022/06/03 03:24:58;;;;;;;0.00;0.00;;;;;;;;;;5035589;28;100257;-74
2022/06/03 03:27:30;;;;;;;0.00;0.00;;;;;;;;;;5036028;28;98549;-74
2022/06/03 03:30:15;;;;;;;0.00;0.00;;;;;;;;;;5035768;28;99525;-74
2022/06/03 03:32:45;;;;;;;0.00;0.00;;;;;;;;;;5035639;28;99095;-75
2022/06/03 03:35:30;;;;;;;0.00;0.00;;;;;;;;;;5036172;28;98392;-73
2022/06/03 03:38:06;;;;;;;0.00;0.00;;;;;;;;;;5036148;28;99393;-74
2022/06/03 03:40:40;;;;;;;0.00;0.00;;;;;;;;;;5038670;28;99716;-74
2022/06/03 03:43:25;;;;;;;0.00;0.00;;;;;;;;;;5035984;28;99679;-74
2022/06/03 03:45:52;;;;;;;0.00;0.00;;;;;;;;;;5034451;28;101196;-75
2022/06/03 03:48:37;;;;;;;0.00;0.00;;;;;;;;;;5036580;28;97652;-76
2022/06/03 03:51:03;;;;;;;0.00;0.00;;;;;;;;;;5035492;28;99091;-75
2022/06/03 03:53:43;;;;;;;0.00;0.00;;;;;;;;;;5035505;28;99718;-74
2022/06/03 03:56:28;;;;;;;0.00;0.00;;;;;;;;;;5035543;28;99156;-74
2022/06/03 03:58:58;;;;;;;0.00;0.00;;;;;;;;;;5035872;28;99562;-75
2022/06/03 04:01:39;;;;;;;0.00;0.00;;;;;;;;;;5035045;28;99750;-74
2022/06/03 04:04:12;;;;;;;0.00;0.00;;;;;;;;;;5039068;27;98313;-74
2022/06/03 04:06:57;;;;;;;0.00;0.00;;;;;;;;;;5035393;28;100051;-74
2022/06/03 04:09:32;;;;;;;0.10;0.10;;;;;;;;;;5035467;28;98603;-74
2022/06/03 04:12:29;;;;;;;0.00;0.00;;;;;;;;;;5034720;27;98734;-74
2022/06/03 04:15:24;;;;;;;0.00;0.00;;;;;;;;;;4964267;27;98276;-74
2022/06/03 04:17:57;;;;;;;0.00;0.00;;;;;;;;;;5035297;28;98349;-74
2022/06/03 04:20:29;;;;;;;0.00;0.00;;;;;;;;;;5035303;28;99326;-74
2022/06/03 04:23:27;;;;;;;0.00;0.00;;;;;;;;;;5034437;28;100431;-73
2022/06/03 04:25:53;;;;;;;0.00;0.00;;;;;;;;;;5036656;28;99074;-74
2022/06/03 04:28:19;;;;;;;0.00;0.00;;;;;;;;;;5038517;28;99285;-74
2022/06/03 04:31:05;;;;;;;0.00;0.00;;;;;;;;;;5035200;28;98393;-73
2022/06/03 04:33:50;;;;;;;0.00;0.00;;;;;;;;;;5035946;28;98242;-73
2022/06/03 04:36:35;;;;;;;0.00;0.00;;;;;;;;;;5036227;28;99795;-73
2022/06/03 04:39:20;;;;;;;0.00;0.00;;;;;;;;;;5035397;28;99391;-73
2022/06/03 04:42:06;;;;;;;0.10;0.10;;;;;;;;;;5038957;28;99381;-73
2022/06/03 04:44:51;;;;;;;0.00;0.00;;;;;;;;;;5038158;27;99488;-76
2022/06/03 04:47:20;;;;;;;0.00;0.00;;;;;;;;;;5036229;28;98974;-75
2022/06/03 04:50:16;;;;;;;0.00;0.00;;;;;;;;;;5036757;28;99705;-75
2022/06/03 04:53:00;;;;;;;0.00;0.00;;;;;;;;;;5040404;27;99206;-74
2022/06/03 04:55:45;;;;;;;0.00;0.00;;;;;;;;;;5037643;28;99240;-75
2022/06/03 04:58:30;;;;;;;0.00;0.00;;;;;;;;;;5037133;28;101613;-73
2022/06/03 05:01:18;;;;;;;0.00;0.00;;;;;;;;;;5038847;28;99147;-74
2022/06/03 05:04:03;;;;;;;0.00;0.00;;;;;;;;;;5035916;28;98794;-74
2022/06/03 05:06:29;;;;;;;0.45;0.30;;;;;;;;;;5035144;27;99574;-74
2022/06/03 05:09:02;;;;;;;0.03;0.03;;;;;;;;;;5033651;28;97768;-74
2022/06/03 05:11:47;;;;;;;0.00;0.00;;;;;;;;;;5033495;28;99744;-74
2022/06/03 05:14:31;;;;;;;0.00;0.00;;;;;;;;;;5031992;28;99716;-74
2022/06/03 05:17:22;;;;;;;0.03;0.03;;;;;;;;;;5033603;28;99294;-74
2022/06/03 05:19:59;;;;;;;0.00;0.00;;;;;;;;;;5033285;28;99221;-75
2022/06/03 05:22:48;;;;;;;0.10;0.10;;;;;;;;;;5034001;28;98460;-74
2022/06/03 05:25:37;;;;;;;0.43;0.43;;;;;;;;;;5033189;27;99335;-75
2022/06/03 05:28:36;;;;;;;0.10;0.10;;;;;;;;;;5034348;28;99663;-74
2022/06/03 05:31:22;;;;;;;0.10;0.10;;;;;;;;;;4988383;27;99503;-74
2022/06/03 05:34:08;;;;;;;0.13;0.13;;;;;;;;;;4993318;27;99198;-73
2022/06/03 05:36:49;;;;;;;0.10;0.10;;;;;;;;;;5034183;28;99423;-74
2022/06/03 05:39:48;;;;;;;0.10;0.10;;;;;;;;;;5037655;28;98397;-74
2022/06/03 05:42:24;;;;;;;0.10;0.10;;;;;;;;;;4989428;27;99419;-75
2022/06/03 05:44:59;;;;;;;0.10;0.10;;;;;;;;;;5032895;28;99169;-74
2022/06/03 05:47:35;;;;;;;0.00;0.00;;;;;;;;;;5033999;28;100074;-75
2022/06/03 05:50:04;;;;;;;0.00;0.00;;;;;;;;;;5033692;28;99777;-74
2022/06/03 05:52:39;;;;;;;0.00;0.00;;;;;;;;;;5034052;28;98401;-74
2022/06/03 05:55:25;;;;;;;0.10;0.10;;;;;;;;;;5033692;28;99913;-75
2022/06/03 05:57:51;;;;;;;0.10;0.10;;;;;;;;;;5033611;28;100094;-74
2022/06/03 06:00:21;;;;;;;0.10;0.10;;;;;;;;;;5032966;28;98487;-73
2022/06/03 06:02:58;;;;;;;0.00;0.00;;;;;;;;;;5037371;28;99577;-73
2022/06/03 06:06:00;;;;;;;0.10;0.10;;;;;;;;;;5033895;28;99580;-74
2022/06/03 06:08:43;;;;;;;0.10;0.10;;;;;;;;;;4952181;28;98954;-73
2022/06/03 06:11:23;;;;;;;0.10;0.10;;;;;;;;;;5025201;27;101197;-74
2022/06/03 06:14:09;;;;;;;0.10;0.10;;;;;;;;;;5033120;27;98454;-75
2022/06/03 06:16:37;;;;;;;0.20;0.20;;;;;;;;;;5033512;28;98655;-73
2022/06/03 06:19:07;;;;;;;0.10;0.10;;;;;;;;;;5033300;28;99421;-74
2022/06/03 06:21:52;;;;;;;0.03;0.03;;;;;;;;;;5033645;28;98241;-74
2022/06/03 06:24:27;;;;;;;0.10;0.10;;;;;;;;;;5033029;28;99819;-74
2022/06/03 06:27:06;;;;;;;0.10;0.10;;;;;;;;;;5036439;28;99541;-74
2022/06/03 06:29:35;;;;;;;0.10;0.10;;;;;;;;;;5033321;28;98912;-76
2022/06/03 06:32:14;;;;;;;0.10;0.10;;;;;;;;;;5033139;28;99050;-75
2022/06/03 06:35:09;;;;;;;0.10;0.10;;;;;;;;;;5033044;27;98405;-75
2022/06/03 06:37:40;;;;;;;0.10;0.10;;;;;;;;;;4960982;27;99529;-75
2022/06/03 06:40:25;;;;;;;0.53;0.53;;;;;;;;;;5032633;28;99750;-74
2022/06/03 06:42:52;;;;;;;0.10;0.10;;;;;;;;;;5033193;28;98418;-74
2022/06/03 06:45:37;;;;;;;6.22;0.38;;;;;;;;;;5031742;28;99490;-75
2022/06/03 06:48:19;;;;;;;0.10;0.10;;;;;;;;;;5032621;28;99486;-74
2022/06/03 06:51:03;;;;;;;0.10;0.10;;;;;;;;;;5036446;28;98203;-74
2022/06/03 06:53:48;;;;;;;0.10;0.10;;;;;;;;;;5032188;28;98994;-74
2022/06/03 06:56:20;;;;;;;0.10;0.10;;;;;;;;;;5033657;28;97674;-75
2022/06/03 06:58:55;;;;;;;0.00;0.00;;;;;;;;;;5033243;28;98320;-75
2022/06/03 07:01:33;;;;;;;0.10;0.10;;;;;;;;;;5032731;28;99828;-75
2022/06/03 07:04:04;;;;;;;0.10;0.10;;;;;;;;;;5032242;27;99152;-76
2022/06/03 07:06:41;;;;;;;0.05;0.05;;;;;;;;;;5035942;28;100048;-74
2022/06/03 07:09:10;;;;;;;0.10;0.10;;;;;;;;;;5032284;28;99710;-74
2022/06/03 07:11:56;;;;;;;0.10;0.10;;;;;;;;;;5032948;28;98352;-74
2022/06/03 07:14:35;;;;;;;0.20;0.20;;;;;;;;;;5040559;27;99422;-74
2022/06/03 07:19:56;;;;;;;0.10;0.10;;;;;;;;;;5033120;28;99457;-74
2022/06/03 07:22:35;;;;;;;0.10;0.10;;;;;;;;;;5032784;28;98359;-74
2022/06/03 07:25:24;;;;;;;0.32;0.32;;;;;;;;;;5032334;28;98613;-73
2022/06/03 07:28:09;;;;;;;0.10;0.10;;;;;;;;;;5014598;28;100948;-74
2022/06/03 07:30:38;;;;;;;0.10;0.10;;;;;;;;;;5032016;28;100353;-74
2022/06/03 07:33:09;;;;;;;0.25;0.25;;;;;;;;;;5032380;28;98473;-74
2022/06/03 07:35:38;;;;;;;0.13;0.13;;;;;;;;;;5032624;28;98679;-73
2022/06/03 07:38:15;;;;;;;0.10;0.10;;;;;;;;;;5035338;28;99631;-74
2022/06/03 07:40:45;;;;;;;0.68;0.30;;;;;;;;;;5032679;28;98652;-74
2022/06/03 07:43:23;;;;;;;0.10;0.10;;;;;;;;;;5032172;28;99393;-76
2022/06/03 07:45:52;;;;;;;0.10;0.10;;;;;;;;;;5031819;28;99042;-74
2022/06/03 07:48:21;;;;;;;0.10;0.10;;;;;;;;;;5016793;28;101294;-73
2022/06/03 07:50:52;;;;;;;0.10;0.10;;;;;;;;;;5035349;28;99787;-75
2022/06/03 07:53:36;;;;;;;0.20;0.20;;;;;;;;;;5018180;28;98348;-75
2022/06/03 07:56:03;;;;;;;0.10;0.10;;;;;;;;;;5035052;28;99831;-74
2022/06/03 07:58:31;;;;;;;0.10;0.10;;;;;;;;;;5038647;28;100182;-74
2022/06/03 08:00:58;;;;;;;0.10;0.10;;;;;;;;;;5018277;28;99123;-76
2022/06/03 08:03:26;;;;;;;0.10;0.10;;;;;;;;;;5035342;28;99000;-74
2022/06/03 08:05:57;;;;;;;0.10;0.10;;;;;;;;;;5035628;28;98286;-74
2022/06/03 08:11:11;;;;;;;0.10;0.10;;;;;;;;;;5034257;28;125304;-73
2022/06/03 08:13:41;;;;;;;0.10;0.10;;;;;;;;;;5036243;28;97657;-75
2022/06/03 08:16:11;;;;;;;0.10;0.10;;;;;;;;;;5035665;28;98589;-75
2022/06/03 08:18:42;;;;;;;0.52;0.52;;;;;;;;;;5035012;28;99046;-76
2022/06/03 08:21:11;;;;;;;0.10;0.10;;;;;;;;;;5020222;28;99237;-74
2022/06/03 08:23:38;;;;;;;0.10;0.10;;;;;;;;;;5034807;28;99520;-75
2022/06/03 08:26:07;;;;;;;0.13;0.13;;;;;;;;;;5035156;28;98374;-76
2022/06/03 08:28:35;;;;;;;0.10;0.10;;;;;;;;;;5035366;28;99911;-80
2022/06/03 08:31:03;;;;;;;0.10;0.10;;;;;;;;;;5034771;28;99804;-81
2022/06/03 08:33:33;;;;;;;0.10;0.10;;;;;;;;;;5035309;28;98323;-80
2022/06/03 08:36:00;;;;;;;0.10;0.10;;;;;;;;;;5017244;28;101147;-81
2022/06/03 08:38:30;;;;;;;0.10;0.10;;;;;;;;;;5034947;28;98434;-80
2022/06/03 08:41:05;;;;;;;0.10;0.10;;;;;;;;;;5017379;28;98521;-77
2022/06/03 08:43:32;;;;;;;0.17;0.17;;;;;;;;;;5033798;28;99471;-77
2022/06/03 08:46:00;;;;;;;0.10;0.10;;;;;;;;;;5016799;28;99075;-78
2022/06/03 08:48:33;;;;;;;0.13;0.13;;;;;;;;;;5034819;28;100128;-78
2022/06/03 08:51:00;;;;;;;0.10;0.10;;;;;;;;;;5034632;28;99081;-78
2022/06/03 08:53:41;;;;;;;0.20;0.20;;;;;;;;;;5034869;28;98498;-79
2022/06/03 08:56:13;;;;;;;0.10;0.10;;;;;;;;;;5016654;28;101428;-79
2022/06/03 08:58:56;;;;;;;0.13;0.13;;;;;;;;;;5034217;27;99589;-76
2022/06/03 09:01:42;;;;;;;0.10;0.10;;;;;;;;;;5034759;28;98296;-78
2022/06/03 09:04:15;;;;;;;0.35;0.35;;;;;;;;;;5034771;28;99455;-78
2022/06/03 09:06:52;;;;;;;0.13;0.13;;;;;;;;;;5019468;28;100782;-73
2022/06/03 09:09:24;;;;;;;0.10;0.10;;;;;;;;;;5035562;28;99611;-74
2022/06/03 09:12:00;;;;;;;0.10;0.10;;;;;;;;;;5035714;28;100791;-79
2022/06/03 09:14:35;;;;;;;0.70;0.70;;;;;;;;;;5001204;28;98391;-80
2022/06/03 09:17:07;;;;;;;0.57;0.57;;;;;;;;;;5034903;28;98844;-79
2022/06/03 09:19:39;;;;;;;0.35;0.35;;;;;;;;;;5033802;28;99079;-76
2022/06/03 09:22:11;;;;;;;0.10;0.10;;;;;;;;;;5034488;28;98733;-79
2022/06/03 09:24:40;;;;;;;0.20;0.20;;;;;;;;;;5034141;28;99954;-76
2022/06/03 09:27:10;;;;;;;0.10;0.10;;;;;;;;;;5033684;28;99877;-79
2022/06/03 09:29:38;;;;;;;0.10;0.10;;;;;;;;;;5038160;28;97550;-80
2022/06/03 09:32:06;;;;;;;0.10;0.10;;;;;;;;;;4991075;28;99970;-79
2022/06/03 09:34:39;;;;;;;0.17;0.17;;;;;;;;;;4992370;28;98472;-80
2022/06/03 09:37:05;;;;;;;0.10;0.10;;;;;;;;;;4992021;28;99104;-79
2022/06/03 09:39:42;;;;;;;0.35;0.35;;;;;;;;;;4976824;28;99061;-78
2022/06/03 09:42:10;;;;;;;0.20;0.20;;;;;;;;;;5001246;28;98604;-79
2022/06/03 09:44:37;;;;;;;0.20;0.20;;;;;;;;;;5000759;28;99737;-78
2022/06/03 09:47:05;;;;;;;0.10;0.10;;;;;;;;;;5002167;28;99372;-76
2022/06/03 09:49:32;;;;;;;0.10;0.10;;;;;;;;;;4984778;28;98978;-78
2022/06/03 09:52:00;;;;;;;0.20;0.20;;;;;;;;;;5003487;28;99602;-80
2022/06/03 09:54:36;;;;;;;0.10;0.10;;;;;;;;;;5000978;28;97818;-80
2022/06/03 09:57:12;;;;;;;0.10;0.10;;;;;;;;;;4999691;28;98826;-81
2022/06/03 09:59:40;;;;;;;0.20;0.20;;;;;;;;;;5000225;28;99766;-78
2022/06/03 10:02:07;;;;;;;0.17;0.17;;;;;;;;;;5003647;28;100598;-72
2022/06/03 10:04:36;;;;;;;0.20;0.20;;;;;;;;;;5043642;27;100052;-78
2022/06/03 10:07:05;;;;;;;0.22;0.22;;;;;;;;;;5041986;27;99073;-80
2022/06/03 10:12:49;;;;;;;0.10;0.10;;;;;;;;;;5045597;27;98780;-79
2022/06/03 10:15:41;;;;;;;0.20;0.20;;;;;;;;;;5043829;27;98503;-79
2022/06/03 10:18:13;;;;;;;0.10;0.10;;;;;;;;;;5051008;27;98983;-77
2022/06/03 10:20:40;;;;;;;0.20;0.20;;;;;;;;;;5054045;27;98345;-82
2022/06/03 10:23:22;;;;;;;0.28;0.28;;;;;;;;;;5026157;27;98608;-76
2022/06/03 10:26:09;;;;;;;0.20;0.20;;;;;;;;;;5053628;27;98779;-77
2022/06/03 10:28:37;;;;;;;0.10;0.10;;;;;;;;;;5052794;27;100638;-78
2022/06/03 10:31:05;;;;;;;0.10;0.10;;;;;;;;;;5053717;27;98439;-79
2022/06/03 10:33:31;;;;;;;0.20;0.20;;;;;;;;;;5053823;27;98898;-78
2022/06/03 10:35:58;;;;;;;0.30;0.30;;;;;;;;;;5056694;27;99229;-76
2022/06/03 10:38:27;;;;;;;0.10;0.10;;;;;;;;;;5053522;27;99719;-77
2022/06/03 10:40:54;;;;;;;0.22;0.22;;;;;;;;;;5052841;27;99775;-76
2022/06/03 10:43:31;;;;;;;0.10;0.10;;;;;;;;;;5035833;27;98508;-77
2022/06/03 10:46:26;;;;;;;0.40;0.40;;;;;;;;;;5054055;27;99207;-74
2022/06/03 10:49:09;;;;;;;0.10;0.10;;;;;;;;;;5033422;27;99528;-78
2022/06/03 11:02:43;;;;;;;;;;;;;;;;;;5053276;27;99705;-76
2022/06/03 11:05:19;;;;;;;0.20;0.20;;;;;;;;;;5052405;27;117385;-76
2022/06/03 11:07:56;;;;;;;0.10;0.10;;;;;;;;;;5053278;27;99863;-76
2022/06/03 11:10:31;;;;;;;0.20;0.20;;;;;;;;;;5052510;27;99490;-76
2022/06/03 11:13:15;;;;;;;0.28;0.28;;;;;;;;;;5055406;27;97527;-75
2022/06/03 11:15:45;;;;;;;0.20;0.20;;;;;;;;;;5057334;27;98722;-75
2022/06/03 11:18:12;;;;;;;0.20;0.20;;;;;;;;;;5053079;27;99544;-76
2022/06/03 11:20:40;;;;;;;0.20;0.20;;;;;;;;;;5034000;27;99147;-75
2022/06/03 11:23:07;;;;;;;0.10;0.10;;;;;;;;;;5039613;27;99898;-78
2022/06/03 11:25:36;;;;;;;0.10;0.10;;;;;;;;;;5056368;27;98369;-77
2022/06/03 11:28:08;;;;;;;0.20;0.20;;;;;;;;;;5056610;27;98740;-76
2022/06/03 11:30:43;;;;;;;0.15;0.15;;;;;;;;;;5056400;27;98444;-75
2022/06/03 11:33:15;;;;;;;0.20;0.20;;;;;;;;;;5056205;27;98364;-77
2022/06/03 11:35:47;;;;;;;0.10;0.10;;;;;;;;;;5056469;27;99268;-75
2022/06/03 11:38:17;;;;;;;0.10;0.10;;;;;;;;;;5052156;27;98359;-76
2022/06/03 11:40:51;;;;;;;0.20;0.20;;;;;;;;;;5056530;27;98267;-75
2022/06/03 11:43:25;;;;;;;0.43;0.43;;;;;;;;;;5056340;27;99415;-75
2022/06/03 11:46:13;;;;;;;0.10;0.10;;;;;;;;;;5058715;27;100150;-75
2022/06/03 11:48:42;;;;;;;0.20;0.20;;;;;;;;;;5056359;27;99998;-75
2022/06/03 11:51:10;;;;;;;0.13;0.13;;;;;;;;;;5055868;27;99664;-76
2022/06/03 11:53:42;;;;;;;0.10;0.10;;;;;;;;;;5056443;27;98321;-76
2022/06/03 11:56:09;;;;;;;0.10;0.10;;;;;;;;;;5055520;27;99271;-77
2022/06/03 11:58:55;;;;;;;0.10;0.10;;;;;;;;;;5055816;27;98808;-76
2022/06/03 12:01:26;;;;;;;0.10;0.10;;;;;;;;;;5056332;27;98394;-76
2022/06/03 12:04:19;;;;;;;0.10;0.10;;;;;;;;;;5058998;27;98762;-77
2022/06/03 12:07:04;;;;;;;0.35;0.35;;;;;;;;;;5051578;27;99886;-77
2022/06/03 12:09:45;;;;;;;0.20;0.20;;;;;;;;;;5059377;27;98379;-76
2022/06/03 12:15:27;;;;;;;0.10;0.10;;;;;;;;;;5056167;27;98420;-76
2022/06/03 12:17:53;;;;;;;0.10;0.10;;;;;;;;;;5055844;27;99366;-76
2022/06/03 12:20:43;;;;;;;0.20;0.20;;;;;;;;;;5055509;27;99655;-77
2022/06/03 12:23:10;;;;;;;0.10;0.10;;;;;;;;;;5042652;27;98836;-77
2022/06/03 12:25:37;;;;;;;0.10;0.10;;;;;;;;;;5055706;27;99614;-75
2022/06/03 12:28:05;;;;;;;0.20;0.20;;;;;;;;;;5037305;27;100874;-78
2022/06/03 12:30:35;;;;;;;0.20;0.20;;;;;;;;;;5059394;27;97703;-76
2022/06/03 12:33:05;;;;;;;0.10;0.10;;;;;;;;;;5054993;27;99555;-77
2022/06/03 12:35:47;;;;;;;0.20;0.20;;;;;;;;;;5055331;27;98366;-78
2022/06/03 12:38:20;;;;;;;0.10;0.10;;;;;;;;;;5054553;27;100537;-75
2022/06/03 12:40:47;;;;;;;0.10;0.10;;;;;;;;;;5055296;27;99702;-77
2022/06/03 12:43:43;;;;;;;0.15;0.15;;;;;;;;;;5037822;27;98547;-76
2022/06/03 12:46:30;;;;;;;0.17;0.17;;;;;;;;;;5023173;27;102841;-77
2022/06/03 12:48:58;;;;;;;0.10;0.10;;;;;;;;;;5054704;27;99438;-76
2022/06/03 12:51:29;;;;;;;0.10;0.10;;;;;;;;;;5055539;27;98278;-77
2022/06/03 12:54:02;;;;;;;0.20;0.20;;;;;;;;;;5058403;27;99442;-79
2022/06/03 12:56:35;;;;;;;0.10;0.10;;;;;;;;;;5055887;27;97674;-78
2022/06/03 12:59:11;;;;;;;0.10;0.10;;;;;;;;;;5055242;27;99019;-76
2022/06/03 13:02:01;;;;;;;0.10;0.10;;;;;;;;;;5018963;27;99601;-80
2022/06/03 13:04:41;;;;;;;0.13;0.13;;;;;;;;;;5036734;27;99223;-75
2022/06/03 13:07:13;;;;;;;0.10;0.10;;;;;;;;;;5049035;27;99650;-75
2022/06/03 13:09:54;;;;;;;0.10;0.10;;;;;;;;;;5033816;27;99098;-75
2022/06/03 13:12:22;;;;;;;0.10;0.10;;;;;;;;;;5037806;27;98643;-76
2022/06/03 13:14:48;;;;;;;0.20;0.20;;;;;;;;;;5035280;27;98772;-75
2022/06/03 13:17:33;;;;;;;0.20;0.20;;;;;;;;;;5036828;27;100094;-75
2022/06/03 13:20:00;;;;;;;0.20;0.20;;;;;;;;;;5000538;27;101474;-76
2022/06/03 13:22:29;;;;;;;0.20;0.20;;;;;;;;;;5037841;27;98906;-74
2022/06/03 13:25:13;;;;;;;0.20;0.20;;;;;;;;;;5033952;27;98542;-74
2022/06/03 13:27:40;;;;;;;0.35;0.35;;;;;;;;;;5033789;27;99508;-77
2022/06/03 13:30:11;;;;;;;0.10;0.10;;;;;;;;;;5033038;27;99932;-77
2022/06/03 13:32:40;;;;;;;1.73;1.63;;;;;;;;;;5015517;28;98517;-78
2022/06/03 13:35:21;;;;;;;0.10;0.10;;;;;;;;;;5033903;27;99520;-76
2022/06/03 13:38:11;;;;;;;0.10;0.10;;;;;;;;;;5033179;27;100125;-76
2022/06/03 13:40:38;;;;;;;0.10;0.10;;;;;;;;;;5036932;27;98464;-77
2022/06/03 13:43:15;;;;;;;0.20;0.20;;;;;;;;;;5016154;27;99389;-76
2022/06/03 13:45:47;;;;;;;0.10;0.10;;;;;;;;;;5032704;27;98376;-76
2022/06/03 13:48:21;;;;;;;0.45;0.40;;;;;;;;;;5033948;27;99794;-75
2022/06/03 13:50:49;;;;;;;0.10;0.10;;;;;;;;;;5032948;27;99281;-73
2022/06/03 13:53:23;;;;;;;0.10;0.10;;;;;;;;;;5016643;28;98371;-75
2022/06/03 13:55:54;;;;;;;0.10;0.10;;;;;;;;;;5033268;27;99387;-78
2022/06/03 13:58:20;;;;;;;;;;;;;;;;;;5016265;28;99098;-76
2022/06/03 14:00:49;;;;;;;0.10;0.10;;;;;;;;;;5033694;27;98534;-76
2022/06/03 14:03:28;;;;;;;0.15;0.15;;;;;;;;;;5035804;27;98642;-78
2022/06/03 14:06:07;;;;;;;0.80;0.80;;;;;;;;;;5033510;27;98445;-77
2022/06/03 14:08:36;;;;;;;0.20;0.20;;;;;;;;;;5015438;27;100550;-79
2022/06/03 14:11:06;;;;;;;0.10;0.10;;;;;;;;;;5032661;27;99282;-76
2022/06/03 14:13:52;;;;;;;0.13;0.13;;;;;;;;;;5035365;27;97786;-80
2022/06/03 14:16:39;;;;;;;0.20;0.20;;;;;;;;;;5015943;28;98448;-80
2022/06/03 14:23:15;;;;;;;0.10;0.10;;;;;;;;;;5034828;27;99104;-80
2022/06/03 14:26:06;;;;;;;0.10;0.10;;;;;;;;;;4954849;28;99694;-82
2022/06/03 14:28:53;;;;;;;0.65;0.65;;;;;;;;;;4938598;28;98460;-82
2022/06/03 14:31:53;;;;;;;0.10;0.10;;;;;;;;;;4951986;28;98832;-81
2022/06/03 14:34:35;;;;;;;0.10;0.10;;;;;;;;;;4936081;28;99222;-77
2022/06/03 14:37:04;;;;;;;0.10;0.10;;;;;;;;;;4939414;28;98491;-76
2022/06/03 14:39:34;;;;;;;0.10;0.10;;;;;;;;;;4970801;28;99026;-77
2022/06/03 14:42:08;;;;;;;0.10;0.10;;;;;;;;;;5033156;27;98767;-80
2022/06/03 14:44:37;;;;;;;0.10;0.10;;;;;;;;;;5033236;27;98339;-80
2022/06/03 14:47:09;;;;;;;0.20;0.20;;;;;;;;;;5044961;27;100016;-81
2022/06/03 14:49:40;;;;;;;0.20;0.20;;;;;;;;;;5043285;27;100791;-80
2022/06/03 14:52:09;;;;;;;0.20;0.20;;;;;;;;;;5029958;27;99571;-79
2022/06/03 14:54:43;;;;;;;0.10;0.10;;;;;;;;;;5027095;28;99166;-81
2022/06/03 14:57:16;;;;;;;0.10;0.10;;;;;;;;;;5034913;27;98289;-80
2022/06/03 14:59:55;;;;;;;0.25;0.25;;;;;;;;;;5036273;27;99489;-79
2022/06/03 15:02:22;;;;;;;0.10;0.10;;;;;;;;;;5041932;27;99017;-78
2022/06/03 15:04:56;;;;;;;0.10;0.10;;;;;;;;;;5033749;27;98642;-77
2022/06/03 15:07:34;;;;;;;0.10;0.10;;;;;;;;;;5033906;27;99524;-78
2022/06/03 15:10:02;;;;;;;0.20;0.20;;;;;;;;;;5033099;27;99736;-78
2022/06/03 15:12:31;;;;;;;0.13;0.13;;;;;;;;;;5043444;27;99481;-78
2022/06/03 15:15:01;;;;;;;1.75;0.77;;;;;;;;;;5035797;27;100337;-82
2022/06/03 15:17:44;;;;;;;0.10;0.10;;;;;;;;;;5020105;28;98576;-77
2022/06/03 15:20:14;;;;;;;0.20;0.20;;;;;;;;;;5033777;27;99229;-78
2022/06/03 15:22:49;;;;;;;0.22;0.22;;;;;;;;;;5037641;27;98968;-76
2022/06/03 15:25:35;;;;;;;1.67;0.50;;;;;;;;;;5036247;27;98816;-75
2022/06/03 15:28:06;;;;;;;0.10;0.10;;;;;;;;;;5032745;27;98888;-77
2022/06/03 15:30:33;;;;;;;;;;;;;;;;;;5033706;27;99289;-78
2022/06/03 15:33:06;;;;;;;0.20;0.20;;;;;;;;;;5032860;27;106251;-76
2022/06/03 15:35:37;;;;;;;0.20;0.20;;;;;;;;;;5035328;27;98437;-79
2022/06/03 15:38:06;;;;;;;0.15;0.10;;;;;;;;;;5018855;28;98401;-80
2022/06/03 15:40:33;;;;;;;0.10;0.10;;;;;;;;;;5031488;27;100063;-78
2022/06/03 15:43:19;;;;;;;0.10;0.10;;;;;;;;;;5032428;27;99301;-83
2022/06/03 15:46:05;;;;;;;0.10;0.10;;;;;;;;;;5007785;27;98448;-78
2022/06/03 15:48:32;;;;;;;0.40;0.40;;;;;;;;;;5031899;27;98645;-77
2022/06/03 15:51:01;;;;;;;0.10;0.10;;;;;;;;;;5031139;27;99838;-75
2022/06/03 15:53:29;;;;;;;0.10;0.10;;;;;;;;;;5032876;27;98859;-78
2022/06/03 15:55:58;;;;;;;0.10;0.10;;;;;;;;;;5032328;27;98805;-81
2022/06/03 15:58:29;;;;;;;0.10;0.10;;;;;;;;;;5035567;27;98286;-78
2022/06/03 16:01:14;;;;;;;0.13;0.13;;;;;;;;;;5036904;27;100266;-78
2022/06/03 16:03:56;;;;;;;0.10;0.10;;;;;;;;;;5034954;27;99658;-77
2022/06/03 16:06:41;;;;;;;0.10;0.10;;;;;;;;;;5036136;27;99162;-78